createdAt,value
2018-01-26T00:00:56.714Z,1.37
2018-01-26T00:06:30.081Z,2.60
2018-01-26T00:09:09.829Z,2.10
2018-01-26T00:11:48.306Z,1.73
2018-01-26T00:14:25.827Z,1.40
2018-01-26T00:16:55.600Z,0.93
2018-01-26T00:19:36.569Z,0.77
2018-01-26T00:22:09.891Z,0.65
2018-01-26T00:24:45.781Z,0.65
2018-01-26T00:27:19.750Z,0.60
2018-01-26T00:29:48.997Z,1.10
2018-01-26T00:32:22.210Z,0.82
2018-01-26T00:35:06.294Z,0.85
2018-01-26T00:37:35.271Z,0.55
2018-01-26T00:40:11.930Z,0.62
2018-01-26T00:42:42.373Z,0.52
2018-01-26T00:45:14.523Z,0.60
2018-01-26T00:48:26.152Z,0.60
2018-01-26T00:51:01.196Z,0.77
2018-01-26T00:53:35.768Z,0.50
2018-01-26T00:56:12.947Z,0.80
2018-01-26T00:58:52.923Z,0.60
2018-01-26T01:01:21.383Z,0.55
2018-01-26T01:03:57.146Z,0.85
2018-01-26T01:06:30.476Z,0.70
2018-01-26T01:09:13.144Z,1.10
2018-01-26T01:11:47.582Z,0.75
2018-01-26T01:14:21.916Z,0.82
2018-01-26T01:17:03.944Z,0.73
2018-01-26T01:19:39.690Z,0.80
2018-01-26T01:22:10.852Z,0.70
2018-01-26T01:24:50.047Z,0.88
2018-01-26T01:27:30.860Z,0.90
2018-01-26T01:29:58.500Z,0.95
2018-01-26T01:32:26.243Z,0.70
2018-01-26T01:35:08.849Z,1.20
2018-01-26T01:37:37.145Z,1.00
2018-01-26T01:40:05.688Z,0.98
2018-01-26T01:42:33.138Z,1.15
2018-01-26T01:45:00.578Z,0.70
2018-01-26T01:47:28.023Z,0.75
2018-01-26T01:49:55.483Z,1.00
2018-01-26T01:52:23.948Z,1.05
2018-01-26T01:54:51.803Z,1.08
2018-01-26T01:57:20.425Z,0.90
2018-01-26T01:59:47.872Z,0.77
2018-01-26T02:02:15.302Z,0.70
2018-01-26T02:04:43.466Z,1.00
2018-01-26T02:07:11.302Z,0.73
2018-01-26T02:09:38.754Z,0.80
2018-01-26T02:12:06.201Z,0.75
2018-01-26T02:14:33.637Z,0.90
2018-01-26T02:17:01.090Z,0.80
2018-01-26T02:19:28.542Z,1.00
2018-01-26T02:21:55.988Z,1.40
2018-01-26T02:24:23.422Z,1.37
2018-01-26T02:26:51.278Z,1.00
2018-01-26T02:29:18.746Z,1.50
2018-01-26T02:31:46.974Z,1.30
2018-01-26T02:34:14.472Z,1.10
2018-01-26T02:36:41.873Z,1.20
2018-01-26T02:39:09.302Z,1.25
2018-01-26T02:44:30.907Z,1.50
2018-01-26T02:46:59.331Z,1.10
2018-01-26T02:49:26.721Z,1.23
2018-01-26T02:51:54.176Z,1.50
2018-01-26T02:54:23.564Z,1.40
2018-01-26T02:56:51.859Z,1.62
2018-01-26T02:59:19.350Z,2.53
2018-01-26T03:01:46.833Z,1.23
2018-01-26T03:04:14.670Z,1.10
2018-01-26T03:06:42.110Z,1.60
2018-01-26T03:09:11.526Z,1.62
2018-01-26T03:11:39.797Z,1.75
2018-01-26T03:14:07.246Z,1.77
2018-01-26T03:16:35.607Z,1.85
2018-01-26T03:19:03.065Z,1.67
2018-01-26T03:21:30.521Z,1.60
2018-01-26T03:23:57.976Z,1.67
2018-01-26T03:26:25.410Z,2.95
2018-01-26T03:28:53.090Z,1.80
2018-01-26T03:31:21.198Z,1.55
2018-01-26T03:33:48.641Z,1.95
2018-01-26T03:36:16.086Z,1.80
2018-01-26T03:38:43.517Z,2.53
2018-01-26T03:41:12.932Z,2.30
2018-01-26T03:43:40.586Z,1.80
2018-01-26T03:46:09.521Z,2.15
2018-01-26T03:48:36.966Z,1.85
2018-01-26T03:51:05.322Z,2.20
2018-01-26T03:53:32.778Z,2.72
2018-01-26T03:56:12.653Z,1.83
2018-01-26T03:58:40.105Z,1.90
2018-01-26T04:01:08.470Z,2.78
2018-01-26T04:03:37.302Z,2.55
2018-01-26T04:06:04.766Z,2.12
2018-01-26T04:08:54.342Z,2.37
2018-01-26T04:11:28.042Z,1.27
2018-01-26T04:14:08.670Z,1.95
2018-01-26T04:16:36.116Z,1.65
2018-01-26T04:19:18.778Z,2.12
2018-01-26T04:21:46.631Z,2.35
2018-01-26T04:24:14.910Z,1.48
2018-01-26T04:26:43.002Z,2.53
2018-01-26T04:29:30.811Z,1.30
2018-01-26T04:32:02.931Z,1.90
2018-01-26T04:34:30.391Z,2.12
2018-01-26T04:37:02.086Z,1.50
2018-01-26T04:39:36.117Z,1.40
2018-01-26T04:42:16.366Z,1.60
2018-01-26T04:44:56.602Z,1.62
2018-01-26T04:47:25.994Z,2.37
2018-01-26T04:50:07.407Z,1.77
2018-01-26T04:52:50.881Z,2.33
2018-01-26T04:55:31.784Z,2.42
2018-01-26T04:58:01.451Z,1.70
2018-01-26T05:00:29.265Z,1.77
2018-01-26T05:03:24.689Z,1.55
2018-01-26T05:05:52.994Z,1.65
2018-01-26T05:08:20.829Z,2.20
2018-01-26T05:10:48.673Z,1.20
2018-01-26T05:13:16.117Z,1.50
2018-01-26T05:15:43.578Z,1.80
2018-01-26T05:18:11.934Z,2.35
2018-01-26T05:20:39.374Z,3.22
2018-01-26T05:23:24.698Z,3.83
2018-01-26T05:25:52.177Z,3.83
2018-01-26T05:28:19.622Z,6.05
2018-01-26T05:30:47.077Z,8.70
2018-01-26T05:33:15.390Z,9.32
2018-01-26T05:35:43.713Z,7.20
2018-01-26T05:38:12.533Z,4.70
2018-01-26T05:40:39.973Z,4.55
2018-01-26T05:43:08.601Z,3.47
2018-01-26T05:48:29.066Z,3.20
2018-01-26T05:51:10.971Z,3.28
2018-01-26T05:53:38.394Z,2.72
2018-01-26T05:56:06.241Z,2.97
2018-01-26T06:01:56.004Z,3.00
2018-01-26T06:04:25.129Z,3.75
2018-01-26T06:06:59.147Z,2.72
2018-01-26T06:09:26.620Z,2.97
2018-01-26T06:11:54.921Z,3.47
2018-01-26T06:14:23.310Z,4.07
2018-01-26T06:16:50.760Z,3.05
2018-01-26T06:19:19.154Z,3.75
2018-01-26T06:21:46.598Z,2.97
2018-01-26T06:24:17.998Z,3.10
2018-01-26T06:29:24.736Z,2.83
2018-01-26T06:31:54.633Z,3.80
2018-01-26T06:34:23.958Z,3.35
2018-01-26T06:36:53.741Z,4.28
2018-01-26T06:39:24.515Z,2.45
2018-01-26T06:41:52.741Z,3.10
2018-01-26T06:44:34.492Z,3.08
2018-01-26T06:47:03.907Z,4.05
2018-01-26T06:49:31.334Z,3.47
2018-01-26T06:51:59.987Z,4.12
2018-01-26T06:54:28.403Z,3.45
2018-01-26T06:57:12.186Z,3.58
2018-01-26T06:59:40.016Z,4.25
2018-01-26T07:02:07.856Z,3.10
2018-01-26T07:04:37.664Z,3.55
2018-01-26T07:07:05.906Z,4.45
2018-01-26T07:09:34.272Z,3.90
2018-01-26T07:12:01.718Z,4.80
2018-01-26T07:14:29.502Z,4.35
2018-01-26T07:16:57.346Z,4.05
2018-01-26T07:19:24.910Z,3.72
2018-01-26T08:44:04.806Z,2.10
2018-01-26T08:46:33.090Z,2.33
2018-01-26T08:49:01.239Z,2.83
2018-01-26T08:51:29.910Z,6.18
2018-01-26T08:53:58.277Z,8.45
2018-01-26T08:56:26.083Z,8.02
2018-01-26T08:58:57.734Z,5.80
2018-01-26T09:01:27.096Z,6.18
2018-01-26T09:03:56.671Z,6.72
2018-01-26T09:06:26.209Z,6.28
2018-01-26T09:08:57.958Z,6.30
2018-01-26T09:11:28.236Z,5.00
2018-01-26T09:13:56.999Z,4.62
2018-01-26T09:16:29.460Z,3.92
2018-01-26T09:18:56.894Z,3.10
2018-01-26T09:21:24.330Z,2.40
2018-01-26T09:23:53.161Z,2.60
2018-01-26T09:26:20.586Z,2.92
2018-01-26T09:28:51.386Z,2.90
2018-01-26T09:31:18.866Z,2.97
2018-01-26T09:33:48.517Z,2.35
2018-01-26T09:36:15.977Z,3.00
2018-01-26T09:38:43.426Z,3.25
2018-01-26T09:41:10.850Z,3.90
2018-01-26T09:43:39.269Z,3.42
2018-01-26T09:46:07.705Z,3.53
2018-01-26T09:48:36.421Z,2.35
2018-01-26T09:51:04.471Z,1.95
2018-01-26T09:53:34.241Z,2.30
2018-01-26T09:56:01.996Z,2.30
2018-01-26T09:58:30.356Z,1.75
2018-01-26T10:00:57.783Z,2.20
2018-01-26T10:03:28.120Z,2.22
2018-01-26T10:08:48.835Z,2.45
2018-01-26T10:11:16.261Z,2.05
2018-01-26T10:13:44.833Z,1.90
2018-01-26T10:16:14.194Z,2.10
2018-01-26T10:18:41.651Z,2.08
2018-01-26T10:21:13.391Z,2.55
2018-01-26T10:23:42.026Z,2.30
2018-01-26T10:26:09.465Z,2.75
2018-01-26T10:28:37.166Z,2.53
2018-01-26T10:31:04.624Z,3.65
2018-01-26T10:33:37.429Z,2.50
2018-01-26T10:36:21.723Z,2.60
2018-01-26T10:38:50.763Z,2.55
2018-01-26T10:41:19.224Z,2.70
2018-01-26T10:43:47.469Z,2.40
2018-01-26T10:49:09.167Z,2.15
2018-01-26T10:51:38.672Z,2.45
2018-01-26T10:54:10.801Z,2.70
2018-01-26T10:56:39.909Z,3.00
2018-01-26T10:59:10.205Z,3.03
2018-01-26T11:01:43.681Z,2.55
2018-01-26T11:04:11.974Z,2.60
2018-01-26T11:06:58.826Z,2.50
2018-01-26T11:09:30.358Z,2.92
2018-01-26T11:11:58.694Z,3.15
2018-01-26T11:14:47.075Z,3.20
2018-01-26T11:17:15.530Z,4.95
2018-01-26T11:19:44.214Z,3.80
2018-01-26T11:25:19.551Z,4.03
2018-01-26T11:30:46.147Z,3.87
2018-01-26T11:36:09.158Z,3.80
2018-01-26T11:38:50.121Z,3.35
2018-01-26T11:44:32.801Z,3.87
2018-01-26T11:47:03.491Z,4.05
2018-01-26T11:49:30.942Z,3.22
2018-01-26T11:51:58.431Z,2.83
2018-01-26T11:57:27.994Z,3.35
2018-01-26T11:59:56.830Z,3.10
2018-01-26T12:11:18.148Z,3.08
2018-01-26T12:16:53.162Z,2.92
2018-01-26T12:19:21.552Z,2.33
2018-01-26T12:41:14.364Z,2.20
2018-01-26T12:43:41.823Z,2.95
2018-01-26T12:46:10.753Z,1.92
2018-01-26T12:48:38.189Z,2.42
2018-01-26T12:51:09.522Z,2.20
2018-01-26T12:56:21.618Z,2.70
2018-01-26T12:58:59.724Z,2.60
2018-01-26T13:01:27.545Z,2.17
2018-01-26T13:03:55.926Z,3.05
2018-01-26T13:06:23.357Z,3.47
2018-01-26T13:08:50.818Z,3.45
2018-01-26T13:11:18.274Z,3.37
2018-01-26T13:16:39.139Z,2.55
2018-01-26T13:19:29.242Z,2.40
2018-01-26T13:21:58.053Z,2.72
2018-01-26T13:24:27.437Z,3.83
2018-01-26T13:26:55.741Z,2.53
2018-01-26T13:29:29.563Z,2.42
2018-01-26T13:31:57.981Z,2.80
2018-01-26T13:34:26.697Z,3.25
2018-01-26T13:36:54.172Z,3.62
2018-01-26T13:39:23.323Z,2.60
2018-01-26T13:41:56.511Z,3.00
2018-01-26T13:44:24.339Z,3.65
2018-01-26T13:46:54.526Z,3.47
2018-01-26T13:49:21.958Z,3.70
2018-01-26T13:54:44.750Z,4.03
2018-01-26T13:57:12.180Z,3.92
2018-01-26T13:59:59.147Z,3.72
2018-01-26T14:02:26.565Z,3.83
2018-01-26T14:05:12.702Z,3.90
2018-01-26T14:07:40.150Z,3.75
2018-01-26T14:10:07.598Z,4.55
2018-01-26T14:12:36.236Z,4.18
2018-01-26T14:15:04.998Z,4.65
2018-01-26T14:17:34.189Z,3.33
2018-01-26T14:20:01.627Z,4.70
2018-01-26T14:22:29.938Z,4.30
2018-01-26T14:24:57.374Z,4.30
2018-01-26T14:27:26.401Z,4.05
2018-01-26T14:29:53.848Z,3.65
2018-01-26T14:32:28.242Z,4.78
2018-01-26T14:34:55.684Z,4.05
2018-01-26T14:37:23.131Z,4.25
2018-01-26T14:39:50.572Z,3.97
2018-01-26T14:42:18.006Z,3.67
2018-01-26T14:44:46.397Z,3.67
2018-01-26T14:47:14.234Z,4.03
2018-01-26T14:49:41.687Z,3.97
2018-01-26T14:52:09.121Z,4.20
2018-01-26T14:54:36.621Z,4.45
2018-01-26T14:57:04.998Z,3.70
2018-01-26T14:59:34.409Z,3.80
2018-01-26T15:13:35.078Z,5.57
2018-01-26T15:16:02.570Z,5.82
2018-01-26T15:18:30.870Z,5.15
2018-01-26T15:20:58.697Z,5.25
2018-01-26T15:26:20.837Z,5.97
2018-01-26T15:28:50.959Z,6.20
2018-01-26T15:31:18.498Z,7.40
2018-01-26T15:33:46.742Z,6.05
2018-01-26T15:36:14.785Z,5.68
2018-01-26T15:38:42.210Z,5.47
2018-01-26T15:41:09.697Z,6.28
2018-01-26T15:43:37.154Z,5.78
2018-01-26T15:46:05.530Z,7.10
2018-01-26T15:48:49.646Z,5.97
2018-01-26T15:51:18.002Z,6.57
2018-01-26T15:53:51.441Z,6.05
2018-01-26T15:56:18.922Z,6.90
2018-01-26T15:58:46.990Z,6.22
2018-01-26T16:01:16.241Z,6.78
2018-01-26T16:03:45.075Z,6.30
2018-01-26T16:06:12.519Z,7.68
2018-01-26T16:08:40.073Z,4.78
2018-01-26T16:11:09.198Z,4.85
2018-01-26T16:13:37.086Z,4.22
2018-01-26T16:16:04.582Z,4.78
2018-01-26T16:18:32.015Z,4.40
2018-01-26T16:21:03.721Z,4.95
2018-01-26T16:23:31.177Z,4.15
2018-01-26T16:25:58.629Z,4.47
2018-01-26T16:28:26.069Z,3.70
2018-01-26T16:30:53.539Z,3.92
2018-01-26T16:33:22.939Z,4.37
2018-01-26T16:35:50.406Z,5.40
2018-01-26T16:38:17.961Z,4.62
2018-01-26T16:40:51.693Z,4.18
2018-01-26T16:43:21.563Z,4.53
2018-01-26T16:45:54.007Z,5.20
2018-01-26T16:48:25.082Z,5.43
2018-01-26T16:50:52.531Z,3.95
2018-01-26T16:53:20.065Z,3.78
2018-01-26T16:55:48.703Z,3.90
2018-01-26T16:58:16.249Z,4.03
2018-01-26T17:00:46.694Z,3.95
2018-01-26T17:03:17.101Z,3.53
2018-01-26T17:05:44.827Z,4.40
2018-01-26T17:10:47.645Z,4.15
2018-01-26T17:13:15.975Z,3.85
2018-01-26T17:15:48.934Z,3.40
2018-01-26T17:18:16.378Z,3.47
2018-01-26T17:20:46.290Z,4.32
2018-01-26T17:23:40.167Z,3.47
2018-01-26T17:29:00.604Z,4.43
2018-01-26T17:52:18.466Z,6.35
2018-01-26T18:10:01.265Z,5.47
2018-01-26T18:12:45.351Z,4.95
2018-01-26T18:15:41.237Z,5.50
2018-01-26T18:18:08.690Z,6.15
2018-01-26T18:23:19.053Z,4.85
2018-01-26T18:25:48.246Z,5.47
2018-01-26T18:28:15.747Z,5.90
2018-01-26T18:30:43.233Z,6.93
2018-01-26T18:33:10.656Z,3.87
2018-01-26T18:35:38.862Z,5.45
2018-01-26T18:38:08.565Z,4.32
2018-01-26T18:40:36.755Z,5.47
2018-01-26T18:43:04.644Z,4.37
2018-01-26T18:45:33.003Z,4.50
2018-01-26T18:48:00.877Z,3.40
2018-01-26T18:50:30.214Z,4.70
2018-01-26T18:52:58.296Z,4.68
2018-01-26T18:55:25.726Z,4.22
2018-01-26T18:57:54.548Z,4.20
2018-01-26T19:00:22.058Z,4.00
2018-01-26T19:02:50.825Z,4.82
2018-01-26T19:05:18.277Z,4.32
2018-01-26T19:07:48.307Z,4.68
2018-01-26T19:10:16.271Z,4.62
2018-01-26T19:12:44.158Z,4.65
2018-01-26T19:15:12.005Z,5.00
2018-01-26T19:17:41.195Z,7.20
2018-01-26T19:20:08.735Z,6.45
2018-01-26T19:22:44.581Z,8.27
2018-01-26T19:25:12.125Z,7.45
2018-01-26T19:27:39.683Z,10.18
2018-01-26T19:30:09.235Z,9.88
2018-01-26T19:32:37.929Z,9.60
2018-01-26T19:35:06.297Z,11.80
2018-01-26T19:37:35.931Z,12.23
2018-01-26T19:40:03.430Z,10.30
2018-01-26T19:42:32.969Z,12.50
2018-01-26T19:45:00.871Z,8.07
2018-01-26T19:47:28.533Z,5.97
2018-01-26T19:49:56.047Z,5.20
2018-01-26T19:52:23.507Z,5.87
2018-01-26T19:54:52.564Z,5.60
2018-01-26T19:57:20.114Z,5.30
2018-01-26T19:59:47.637Z,3.97
2018-01-26T20:02:15.170Z,3.12
2018-01-26T20:04:48.459Z,5.45
2018-01-26T20:07:29.069Z,4.70
2018-01-26T20:09:56.553Z,4.90
2018-01-26T20:12:24.001Z,4.55
2018-01-26T20:14:51.481Z,4.18
2018-01-26T20:17:19.029Z,3.75
2018-01-26T20:19:46.479Z,5.70
2018-01-26T20:22:14.081Z,4.82
2018-01-26T20:24:41.539Z,5.07
2018-01-26T20:27:09.027Z,4.82
2018-01-26T20:29:36.878Z,4.43
2018-01-26T20:32:05.511Z,4.95
2018-01-26T20:34:32.994Z,4.37
2018-01-26T20:37:00.459Z,4.72
2018-01-26T20:39:47.898Z,4.32
2018-01-26T20:42:26.832Z,4.60
2018-01-26T20:44:54.802Z,4.50
2018-01-26T20:47:22.886Z,5.25
2018-01-26T20:49:50.792Z,5.50
2018-01-26T20:52:18.273Z,7.47
2018-01-26T20:54:45.749Z,6.80
2018-01-26T20:57:14.540Z,7.78
2018-01-26T20:59:45.729Z,8.55
2018-01-26T21:02:13.993Z,7.00
2018-01-26T21:04:41.479Z,7.80
2018-01-26T21:07:08.949Z,9.30
2018-01-26T21:09:36.420Z,8.70
2018-01-26T21:12:04.906Z,6.35
2018-01-26T21:14:32.407Z,3.65
2018-01-26T21:16:59.928Z,3.97
2018-01-26T21:19:27.395Z,4.15
2018-01-26T21:21:55.266Z,3.95
2018-01-26T21:24:22.774Z,4.53
2018-01-26T21:26:50.243Z,3.45
2018-01-26T21:29:39.327Z,4.00
2018-01-26T21:32:08.611Z,3.55
2018-01-26T21:34:36.155Z,2.90
2018-01-26T21:37:03.642Z,3.65
2018-01-26T21:39:31.152Z,3.55
2018-01-26T21:41:58.614Z,4.25
2018-01-26T21:44:26.103Z,4.07
2018-01-26T21:46:54.190Z,4.65
2018-01-26T21:49:21.652Z,4.78
2018-01-26T21:51:50.540Z,3.78
2018-01-26T21:54:18.905Z,4.50
2018-01-26T21:56:46.386Z,4.22
2018-01-26T21:59:14.276Z,4.22
2018-01-26T22:01:41.777Z,5.20
2018-01-26T22:04:09.253Z,5.65
2018-01-26T22:06:42.259Z,4.15
2018-01-26T22:09:10.183Z,4.32
2018-01-26T22:11:37.721Z,4.32
2018-01-26T22:14:05.184Z,6.47
2018-01-26T22:16:33.068Z,4.32
2018-01-26T22:19:00.585Z,4.18
2018-01-26T22:21:28.080Z,4.65
2018-01-26T22:23:55.573Z,5.90
2018-01-26T22:26:23.437Z,4.68
2018-01-26T22:28:51.333Z,3.00
2018-01-26T22:31:18.948Z,3.62
2018-01-26T22:33:46.421Z,4.18
2018-01-26T22:36:13.886Z,4.30
2018-01-26T22:38:41.745Z,3.50
2018-01-26T22:41:09.646Z,4.12
2018-01-26T22:43:37.078Z,5.43
2018-01-26T22:46:04.964Z,5.03
2018-01-26T22:48:32.815Z,6.20
2018-01-26T22:51:02.215Z,7.05
2018-01-26T22:53:30.354Z,7.40
2018-01-26T22:55:57.830Z,6.47
2018-01-26T22:58:38.077Z,5.53
2018-01-26T23:01:05.533Z,5.57
2018-01-26T23:03:33.075Z,4.65
2018-01-26T23:06:01.496Z,4.30
2018-01-26T23:08:29.366Z,4.78
2018-01-26T23:10:57.201Z,4.55
2018-01-26T23:13:25.750Z,4.93
2018-01-26T23:15:53.242Z,3.92
2018-01-26T23:18:20.694Z,4.85
2018-01-26T23:20:53.179Z,5.97
2018-01-26T23:23:20.677Z,4.30
2018-01-26T23:25:51.304Z,4.85
2018-01-26T23:28:18.798Z,4.22
2018-01-26T23:30:47.121Z,6.50
2018-01-26T23:33:14.957Z,4.78
2018-01-26T23:35:56.371Z,4.72
2018-01-26T23:38:25.329Z,4.82
2018-01-26T23:40:59.158Z,6.25
2018-01-26T23:43:26.593Z,4.50
2018-01-26T23:45:55.021Z,6.43
2018-01-26T23:48:22.456Z,5.70
2018-01-26T23:50:50.292Z,6.00
2018-01-26T23:53:17.733Z,6.30
2018-01-26T23:55:48.617Z,5.47
2018-01-26T23:58:16.474Z,5.75
